Time;durP1;ratioP1;P1;durP2;ratioP2;P2;SDS_P1;SDS_P2;PMS_P1;PMS_P2;Temp;Humidity;BMP_temperature;BMP_pressure;BME280_temperature;BME280_humidity;BME280_pressure;Samples;Min_cycle;Max_cycle;Signal;HPM_P1;HPM_P2
2023/01/26 00:01:24;;;;;;;36.25;13.82;;;0.80;99.90;;;;;;5039448;28;20041;-78
2023/01/26 00:03:50;;;;;;;33.25;13.63;;;0.30;99.90;;;;;;5040886;28;20548;-79
2023/01/26 00:06:18;;;;;;;33.08;13.15;;;0.30;99.90;;;;;;5056737;28;20039;-79
2023/01/26 00:08:46;;;;;;;36.67;14.10;;;0.40;99.90;;;;;;5045723;28;20575;-78
2023/01/26 00:11:17;;;;;;;28.38;12.25;;;0.40;99.90;;;;;;5041174;28;20098;-78
2023/01/26 00:13:43;;;;;;;31.95;13.73;;;0.40;99.90;;;;;;5042745;28;20040;-78
2023/01/26 00:16:11;;;;;;;27.55;11.90;;;0.40;99.90;;;;;;5046975;28;20064;-78
2023/01/26 00:18:38;;;;;;;31.23;12.82;;;0.30;99.90;;;;;;5041406;28;20037;-79
2023/01/26 00:21:04;;;;;;;29.35;12.63;;;0.40;99.90;;;;;;5037386;28;20041;-78
2023/01/26 00:23:32;;;;;;;30.30;12.85;;;0.40;99.90;;;;;;5042508;28;20129;-78
2023/01/26 00:25:58;;;;;;;30.17;12.77;;;0.40;99.90;;;;;;5048009;28;20130;-78
2023/01/26 00:28:24;;;;;;;28.52;11.55;;;0.40;99.90;;;;;;5027125;28;20048;-78
2023/01/26 00:30:49;;;;;;;29.25;11.65;;;0.40;99.90;;;;;;5045428;28;20041;-78
2023/01/26 00:33:15;;;;;;;32.50;12.95;;;0.90;99.90;;;;;;5051081;28;20040;-78
2023/01/26 00:35:44;;;;;;;33.13;12.43;;;0.40;99.90;;;;;;5049273;28;20045;-78
2023/01/26 00:38:11;;;;;;;30.52;10.95;;;0.40;99.90;;;;;;5038755;28;20115;-78
2023/01/26 00:40:37;;;;;;;30.83;11.88;;;0.40;99.90;;;;;;5062573;28;20043;-78
2023/01/26 00:43:03;;;;;;;30.70;12.32;;;0.40;99.90;;;;;;5047671;28;20044;-78
2023/01/26 00:45:28;;;;;;;29.35;12.00;;;0.40;99.90;;;;;;5059478;28;20052;-78
2023/01/26 00:47:54;;;;;;;29.98;11.45;;;0.40;99.90;;;;;;5046304;28;20036;-78
2023/01/26 00:50:20;;;;;;;27.15;11.68;;;0.40;99.90;;;;;;5044701;28;20040;-78
2023/01/26 00:52:45;;;;;;;28.63;11.52;;;0.40;99.90;;;;;;5049337;28;20079;-78
2023/01/26 00:55:11;;;;;;;31.05;12.07;;;0.40;99.90;;;;;;5042096;28;20045;-78
2023/01/26 00:57:37;;;;;;;28.23;11.45;;;0.40;99.90;;;;;;5051140;28;20040;-78
2023/01/26 01:00:05;;;;;;;25.65;11.25;;;0.40;99.90;;;;;;5045471;28;20055;-79
2023/01/26 01:02:30;;;;;;;29.15;10.77;;;0.40;99.90;;;;;;5048332;28;20044;-79
2023/01/26 01:04:59;;;;;;;28.85;11.15;;;0.50;99.90;;;;;;5039939;28;20052;-78
2023/01/26 01:07:24;;;;;;;25.73;11.07;;;0.40;99.90;;;;;;5062524;28;20076;-79
2023/01/26 01:09:50;;;;;;;27.40;12.23;;;0.40;99.90;;;;;;5048674;28;20061;-78
2023/01/26 01:12:16;;;;;;;27.75;11.18;;;0.50;99.90;;;;;;5047474;28;20044;-78
2023/01/26 01:14:41;;;;;;;27.98;10.90;;;0.50;99.90;;;;;;5045241;28;20076;-78
2023/01/26 01:17:07;;;;;;;28.10;10.88;;;0.40;99.90;;;;;;5043672;28;20435;-78
2023/01/26 01:19:32;;;;;;;26.05;11.95;;;0.50;99.90;;;;;;5051192;28;20044;-78
2023/01/26 01:21:58;;;;;;;25.17;10.52;;;0.50;99.90;;;;;;5050640;28;20115;-78
2023/01/26 01:24:24;;;;;;;30.63;11.02;;;0.50;99.90;;;;;;5048485;28;20147;-78
2023/01/26 01:26:49;;;;;;;26.17;10.10;;;0.50;99.90;;;;;;5039748;28;20087;-79
2023/01/26 01:29:15;;;;;;;27.52;10.85;;;0.50;99.90;;;;;;5042168;28;20052;-79
2023/01/26 01:31:42;;;;;;;27.60;11.23;;;0.50;99.90;;;;;;5045265;28;20045;-78
2023/01/26 01:34:07;;;;;;;28.75;10.32;;;0.50;99.90;;;;;;5030163;28;20040;-78
2023/01/26 01:36:33;;;;;;;28.45;11.07;;;0.50;99.90;;;;;;5044078;28;20049;-78
2023/01/26 01:39:00;;;;;;;29.50;10.65;;;0.50;99.90;;;;;;5043014;28;20041;-79
2023/01/26 01:41:26;;;;;;;31.88;12.73;;;0.50;99.90;;;;;;5048024;28;20071;-78
2023/01/26 01:44:21;;;;;;;29.52;11.25;;;0.50;99.90;;;;;;5041145;28;20041;-79
2023/01/26 01:46:59;;;;;;;28.60;11.32;;;1.70;99.90;;;;;;5042580;28;20396;-79
2023/01/26 01:49:30;;;;;;;27.83;10.18;;;0.60;99.90;;;;;;5039151;28;20053;-79
2023/01/26 01:52:16;;;;;;;25.55;10.50;;;0.60;99.90;;;;;;5048915;28;20055;-79
2023/01/26 01:54:48;;;;;;;23.17;10.10;;;0.60;99.90;;;;;;5046494;28;20045;-79
2023/01/26 01:57:26;;;;;;;25.98;10.45;;;0.60;99.90;;;;;;5030592;28;20065;-78
2023/01/26 02:00:03;;;;;;;27.88;11.90;;;0.60;99.90;;;;;;5043257;28;20316;-78
2023/01/26 02:02:29;;;;;;;26.60;11.63;;;0.60;99.90;;;;;;5050383;28;20545;-79
2023/01/26 02:04:59;;;;;;;26.25;11.05;;;0.60;99.90;;;;;;5047260;28;20799;-79
2023/01/26 02:07:25;;;;;;;27.13;11.68;;;0.60;99.90;;;;;;5044652;28;20080;-79
2023/01/26 02:12:35;;;;;;;23.52;10.30;;;0.60;99.90;;;;;;5046316;28;20064;-78
2023/01/26 02:15:02;;;;;;;22.95;8.90;;;0.60;99.90;;;;;;5047475;28;20570;-79
2023/01/26 02:17:28;;;;;;;27.25;11.00;;;0.60;99.90;;;;;;5048397;28;20119;-78
2023/01/26 02:20:07;;;;;;;27.40;10.70;;;0.60;99.90;;;;;;5057674;28;20056;-78
2023/01/26 02:22:47;;;;;;;24.50;10.13;;;0.60;99.90;;;;;;5045459;28;20061;-78
2023/01/26 02:25:20;;;;;;;28.63;11.88;;;0.60;99.90;;;;;;5045885;28;20098;-79
2023/01/26 02:27:47;;;;;;;27.50;11.38;;;0.60;99.90;;;;;;5047312;28;20043;-78
2023/01/26 02:30:14;;;;;;;29.60;11.13;;;0.60;99.90;;;;;;5048103;28;20037;-79
2023/01/26 02:32:39;;;;;;;30.27;11.80;;;0.60;99.90;;;;;;5046337;28;20040;-79
2023/01/26 02:35:05;;;;;;;24.65;9.93;;;0.60;99.90;;;;;;5048464;28;20044;-79
2023/01/26 02:37:31;;;;;;;23.92;10.38;;;0.60;99.90;;;;;;5047758;28;20045;-79
2023/01/26 02:40:14;;;;;;;32.78;11.55;;;0.60;99.90;;;;;;5039701;28;20640;-79
2023/01/26 02:42:43;;;;;;;22.48;9.45;;;0.60;99.90;;;;;;5038190;28;20075;-79
2023/01/26 02:45:12;;;;;;;27.42;11.23;;;0.70;99.90;;;;;;5046429;28;20047;-79
2023/01/26 02:47:39;;;;;;;27.63;10.93;;;0.70;99.90;;;;;;5043820;28;20045;-79
2023/01/26 02:50:06;;;;;;;27.70;11.27;;;0.70;99.90;;;;;;5047293;28;20033;-79
2023/01/26 02:52:32;;;;;;;29.02;10.80;;;0.70;99.90;;;;;;5042161;28;20150;-79
2023/01/26 02:57:43;;;;;;;28.50;11.40;;;0.70;99.90;;;;;;5048486;28;20045;-79
2023/01/26 03:00:15;;;;;;;28.98;11.13;;;0.70;99.90;;;;;;5043681;28;20441;-79
2023/01/26 03:02:41;;;;;;;27.40;10.95;;;0.70;99.90;;;;;;5041630;28;20045;-79
2023/01/26 03:05:07;;;;;;;28.73;11.25;;;0.70;99.90;;;;;;5045518;28;20045;-79
2023/01/26 03:07:33;;;;;;;46.38;15.05;;;0.70;99.90;;;;;;5037443;28;20033;-79
2023/01/26 03:09:58;;;;;;;24.90;10.13;;;0.70;99.90;;;;;;5043524;28;20036;-79
2023/01/26 03:12:25;;;;;;;26.55;10.85;;;0.80;99.90;;;;;;5042765;28;20037;-79
2023/01/26 03:15:41;;;;;;;41.70;12.60;;;0.70;99.90;;;;;;5045865;28;20310;-79
2023/01/26 03:17:39;;;;;;;27.10;10.63;;;0.80;99.90;;;;;;5049018;28;20040;-79
2023/01/26 03:27:25;;;;;;;27.45;10.88;;;0.80;99.90;;;;;;5046475;28;20045;-79
2023/01/26 03:28:23;;;;;;;27.00;10.95;;;0.80;99.90;;;;;;5037145;28;20400;-79
2023/01/26 03:30:51;;;;;;;26.13;10.30;;;0.80;99.90;;;;;;5043201;28;20029;-79
2023/01/26 03:33:18;;;;;;;23.80;10.38;;;0.80;99.90;;;;;;5043832;28;20376;-80
2023/01/26 03:35:44;;;;;;;29.77;12.13;;;0.80;99.90;;;;;;5044598;28;20041;-79
2023/01/26 03:38:10;;;;;;;23.38;10.05;;;0.80;99.90;;;;;;5040260;28;20099;-80
2023/01/26 03:57:04;;;;;;;24.58;9.38;;;0.90;99.90;;;;;;5034830;28;20107;-79
2023/01/26 03:59:38;;;;;;;24.88;9.82;;;0.90;99.90;;;;;;5041242;28;20476;-79
2023/01/26 04:10:23;;;;;;;21.58;8.68;;;0.90;99.90;;;;;;5047181;28;20045;-79
2023/01/26 04:23:56;;;;;;;20.70;9.60;;;1.00;99.90;;;;;;5041785;28;20060;-80
2023/01/26 04:26:33;;;;;;;22.63;8.68;;;0.90;99.90;;;;;;5050388;28;20141;-80
2023/01/26 04:29:01;;;;;;;25.40;10.95;;;1.00;99.90;;;;;;5044345;28;20044;-79
2023/01/26 04:31:27;;;;;;;22.58;9.43;;;1.00;99.90;;;;;;5045948;28;20045;-80
2023/01/26 04:33:52;;;;;;;22.95;8.77;;;0.90;99.90;;;;;;5049807;28;20045;-79
2023/01/26 04:36:18;;;;;;;26.15;9.75;;;0.90;99.90;;;;;;5040397;28;20079;-79
2023/01/26 04:38:44;;;;;;;25.35;10.15;;;0.90;99.90;;;;;;5051267;28;20091;-80
2023/01/26 04:41:09;;;;;;;21.35;9.45;;;1.00;99.90;;;;;;5048938;28;20550;-80
2023/01/26 04:43:35;;;;;;;21.85;8.43;;;1.00;99.90;;;;;;5042729;28;20076;-79
2023/01/26 04:46:06;;;;;;;23.90;9.30;;;1.00;99.90;;;;;;5047570;28;20395;-80
2023/01/26 04:48:32;;;;;;;25.30;9.25;;;1.00;99.90;;;;;;5050979;28;20119;-80
2023/01/26 04:51:01;;;;;;;25.35;10.27;;;1.00;99.90;;;;;;5044516;28;20120;-80
2023/01/26 04:53:27;;;;;;;22.77;9.35;;;1.00;99.90;;;;;;5037816;28;20052;-80
2023/01/26 04:55:54;;;;;;;24.90;10.75;;;1.10;99.90;;;;;;5052333;28;20124;-80
2023/01/26 04:58:20;;;;;;;23.45;9.88;;;1.10;99.90;;;;;;5033266;28;20041;-80
2023/01/26 05:00:54;;;;;;;23.70;11.13;;;1.10;99.90;;;;;;5051618;28;20040;-80
2023/01/26 05:03:20;;;;;;;24.20;10.82;;;1.10;99.90;;;;;;5048639;28;20048;-80
2023/01/26 05:05:51;;;;;;;20.98;9.57;;;1.10;99.90;;;;;;5050210;28;20144;-79
2023/01/26 05:08:18;;;;;;;24.83;11.15;;;1.10;99.90;;;;;;5049740;28;20050;-80
2023/01/26 05:10:45;;;;;;;21.40;9.40;;;1.10;99.90;;;;;;5048306;28;20029;-80
2023/01/26 05:13:11;;;;;;;19.48;8.77;;;1.10;99.90;;;;;;5046538;28;20033;-80
2023/01/26 05:15:37;;;;;;;27.73;11.45;;;1.10;99.90;;;;;;5044512;28;20495;-80
2023/01/26 05:18:04;;;;;;;25.75;10.85;;;1.10;99.90;;;;;;5047906;28;20048;-80
2023/01/26 05:20:30;;;;;;;23.63;9.90;;;1.10;99.90;;;;;;5047091;28;20045;-80
2023/01/26 05:22:56;;;;;;;21.95;9.25;;;1.10;99.90;;;;;;5043218;28;20098;-80
2023/01/26 05:25:22;;;;;;;22.92;10.65;;;1.10;99.90;;;;;;5044298;28;20054;-80
2023/01/26 05:27:48;;;;;;;25.75;10.43;;;1.10;99.90;;;;;;5038962;28;20084;-80
2023/01/26 05:30:14;;;;;;;26.65;10.98;;;1.20;99.90;;;;;;5046084;28;20065;-80
2023/01/26 05:32:40;;;;;;;36.63;12.18;;;1.10;99.90;;;;;;5043731;28;20116;-80
2023/01/26 05:35:06;;;;;;;26.88;12.00;;;1.10;99.90;;;;;;5047969;28;20563;-80
2023/01/26 05:37:33;;;;;;;28.33;11.30;;;1.10;99.90;;;;;;5038671;28;20057;-80
2023/01/26 05:39:59;;;;;;;33.90;10.90;;;1.10;99.90;;;;;;5061957;28;20400;-80
2023/01/26 05:42:25;;;;;;;30.33;12.00;;;1.10;99.90;;;;;;5049680;28;20432;-80
2023/01/26 05:44:51;;;;;;;32.97;12.15;;;1.10;99.90;;;;;;5047155;28;20518;-81
2023/01/26 05:47:18;;;;;;;29.40;12.85;;;1.20;99.90;;;;;;5027300;28;20033;-80
2023/01/26 05:49:44;;;;;;;46.97;12.57;;;1.20;99.90;;;;;;5046571;28;20396;-80
2023/01/26 05:52:11;;;;;;;31.50;9.73;;;1.20;99.90;;;;;;5049590;28;20036;-80
2023/01/26 05:54:37;;;;;;;39.88;14.15;;;1.20;99.90;;;;;;5050785;28;20091;-80
2023/01/26 05:57:03;;;;;;;35.28;12.95;;;1.20;99.90;;;;;;5051056;28;20036;-80
2023/01/26 05:59:29;;;;;;;34.58;12.27;;;1.20;99.90;;;;;;5047732;28;20037;-80
2023/01/26 06:01:55;;;;;;;35.58;11.77;;;1.20;99.90;;;;;;5049545;28;20029;-80
2023/01/26 06:04:21;;;;;;;35.03;12.38;;;1.20;99.90;;;;;;5028893;28;20118;-80
2023/01/26 06:06:47;;;;;;;37.10;12.73;;;1.20;99.90;;;;;;5049503;28;20040;-80
2023/01/26 06:09:13;;;;;;;29.98;10.77;;;1.20;99.90;;;;;;5049920;28;20036;-80
2023/01/26 06:11:39;;;;;;;37.83;12.60;;;1.20;99.90;;;;;;5041296;28;20179;-80
2023/01/26 06:14:04;;;;;;;38.25;12.98;;;1.20;99.90;;;;;;5047641;28;20095;-80
2023/01/26 06:16:30;;;;;;;27.65;11.35;;;1.20;99.90;;;;;;5040723;28;20047;-80
2023/01/26 06:18:55;;;;;;;41.53;15.05;;;1.20;99.90;;;;;;5040517;28;20037;-80
2023/01/26 06:21:21;;;;;;;30.20;11.95;;;1.20;99.90;;;;;;5048230;28;20120;-80
2023/01/26 06:23:47;;;;;;;33.33;12.02;;;1.20;99.90;;;;;;5036372;28;20053;-80
2023/01/26 06:26:14;;;;;;;31.13;11.15;;;1.20;99.90;;;;;;5042084;28;20052;-84
2023/01/26 06:28:39;;;;;;;32.20;12.48;;;1.20;99.90;;;;;;5043756;28;20049;-82
2023/01/26 06:31:06;;;;;;;32.60;11.40;;;1.20;99.90;;;;;;5040141;28;20044;-82
2023/01/26 06:33:34;;;;;;;36.92;12.73;;;1.20;99.90;;;;;;5041012;28;20037;-82
2023/01/26 06:36:04;;;;;;;37.28;12.98;;;1.20;99.90;;;;;;5045718;28;20086;-82
2023/01/26 06:38:31;;;;;;;29.92;10.93;;;1.20;99.90;;;;;;5048451;28;20111;-82
2023/01/26 06:41:04;;;;;;;39.33;12.57;;;1.20;99.90;;;;;;5039208;28;20092;-82
2023/01/26 06:43:31;;;;;;;34.30;13.63;;;1.20;99.90;;;;;;5043538;28;20068;-79
2023/01/26 06:45:57;;;;;;;45.75;13.10;;;1.20;99.90;;;;;;5042891;28;21488;-79
2023/01/26 06:48:28;;;;;;;37.65;13.32;;;1.20;99.90;;;;;;5046531;28;20160;-81
2023/01/26 06:51:16;;;;;;;38.85;12.88;;;1.20;99.90;;;;;;5048976;28;20040;-81
2023/01/26 06:53:46;;;;;;;32.33;12.48;;;1.20;99.90;;;;;;5046550;28;20059;-80
2023/01/26 06:56:12;;;;;;;31.25;12.10;;;1.20;99.90;;;;;;5042835;28;20037;-80
2023/01/26 06:58:38;;;;;;;36.90;11.93;;;1.20;99.90;;;;;;5036536;28;20045;-80
2023/01/26 07:01:04;;;;;;;31.45;12.55;;;1.20;99.90;;;;;;5058592;28;20048;-79
2023/01/26 07:03:30;;;;;;;28.17;11.95;;;1.20;99.90;;;;;;5048634;28;20033;-81
2023/01/26 07:05:56;;;;;;;139.85;21.63;;;1.20;99.90;;;;;;5037992;28;20099;-79
2023/01/26 07:08:21;;;;;;;36.00;13.20;;;1.20;99.90;;;;;;5046106;28;20025;-80
2023/01/26 07:10:48;;;;;;;44.60;14.00;;;1.20;99.90;;;;;;5042952;28;20041;-80
2023/01/26 07:13:14;;;;;;;35.85;13.32;;;1.10;99.90;;;;;;5046423;28;20036;-80
2023/01/26 07:15:39;;;;;;;36.78;12.43;;;1.20;99.90;;;;;;5049238;28;20041;-81
2023/01/26 07:18:05;;;;;;;39.83;11.38;;;1.20;99.90;;;;;;5036546;28;20060;-81
2023/01/26 07:20:31;;;;;;;39.70;13.10;;;1.20;99.90;;;;;;5047817;28;20040;-81
2023/01/26 07:22:59;;;;;;;54.75;14.95;;;1.20;99.90;;;;;;5039783;28;20102;-81
2023/01/26 07:25:25;;;;;;;37.95;11.82;;;1.20;99.90;;;;;;5048263;28;20150;-80
2023/01/26 07:27:57;;;;;;;46.50;14.20;;;1.20;99.90;;;;;;5046279;28;20159;-79
2023/01/26 07:30:24;;;;;;;45.45;14.25;;;1.20;99.90;;;;;;5043631;28;20045;-78
2023/01/26 07:32:49;;;;;;;42.05;13.35;;;1.20;99.90;;;;;;5047815;28;20058;-79
2023/01/26 07:35:15;;;;;;;37.50;12.57;;;1.10;99.90;;;;;;5062651;28;20116;-79
2023/01/26 07:37:41;;;;;;;49.60;15.20;;;1.10;99.90;;;;;;5048549;28;20045;-78
2023/01/26 07:40:07;;;;;;;52.90;15.52;;;1.10;99.90;;;;;;5038900;28;20029;-78
2023/01/26 07:42:33;;;;;;;37.75;12.13;;;1.10;99.90;;;;;;5040849;28;20171;-79
2023/01/26 07:44:58;;;;;;;46.15;13.73;;;1.10;99.90;;;;;;5042656;28;20044;-79
2023/01/26 07:47:24;;;;;;;64.13;15.85;;;1.10;99.90;;;;;;5044182;28;20115;-78
2023/01/26 07:49:50;;;;;;;55.72;16.33;;;1.00;99.90;;;;;;5042888;28;20037;-79
2023/01/26 07:52:16;;;;;;;41.10;13.75;;;1.00;99.90;;;;;;5038103;28;20125;-78
2023/01/26 07:54:41;;;;;;;39.25;13.25;;;0.90;99.90;;;;;;5043571;28;20037;-78
2023/01/26 07:57:07;;;;;;;44.88;13.40;;;0.90;99.90;;;;;;5037975;28;20037;-78
2023/01/26 07:59:33;;;;;;;49.15;14.85;;;0.90;99.90;;;;;;5040530;28;20045;-79
2023/01/26 08:01:58;;;;;;;63.28;15.38;;;0.90;99.90;;;;;;5047444;28;20472;-79
2023/01/26 08:04:24;;;;;;;54.58;15.65;;;0.80;99.90;;;;;;5047491;28;20033;-79
2023/01/26 08:06:51;;;;;;;57.83;15.48;;;0.80;99.90;;;;;;5045245;28;20040;-78
2023/01/26 08:09:17;;;;;;;50.13;14.52;;;0.80;99.90;;;;;;5046505;28;20078;-78
2023/01/26 08:11:42;;;;;;;47.35;16.30;;;0.80;99.90;;;;;;5040797;28;20127;-77
2023/01/26 08:14:08;;;;;;;59.67;17.02;;;0.50;99.90;;;;;;5045753;28;20123;-77
2023/01/26 08:16:33;;;;;;;48.33;16.17;;;0.80;99.90;;;;;;5047104;28;20052;-77
2023/01/26 08:18:59;;;;;;;56.95;14.48;;;0.80;99.90;;;;;;5047957;28;20052;-77
2023/01/26 08:21:25;;;;;;;67.35;17.58;;;0.80;99.90;;;;;;5045593;28;20274;-78
2023/01/26 08:23:51;;;;;;;59.13;18.02;;;0.80;99.90;;;;;;5041216;28;20187;-77
2023/01/26 08:26:18;;;;;;;81.10;18.55;;;0.70;99.90;;;;;;5038867;28;20122;-77
2023/01/26 08:28:44;;;;;;;38.85;14.43;;;0.70;99.90;;;;;;5036067;28;20508;-78
2023/01/26 08:31:18;;;;;;;53.70;14.93;;;0.70;99.90;;;;;;5042671;28;20476;-78
2023/01/26 08:33:45;;;;;;;46.08;15.75;;;0.70;99.90;;;;;;5046422;28;20060;-78
2023/01/26 08:36:13;;;;;;;50.30;16.33;;;0.70;99.90;;;;;;5037426;28;20053;-78
2023/01/26 08:38:38;;;;;;;46.35;16.63;;;0.70;99.90;;;;;;5047688;28;20047;-77
2023/01/26 08:41:05;;;;;;;69.07;18.73;;;0.70;99.90;;;;;;5046416;28;20037;-78
2023/01/26 08:43:31;;;;;;;56.53;17.00;;;0.70;99.90;;;;;;5043726;28;20053;-78
2023/01/26 08:45:56;;;;;;;60.17;20.73;;;0.70;99.90;;;;;;5042686;28;20040;-78
2023/01/26 08:48:22;;;;;;;56.58;18.00;;;0.80;99.90;;;;;;5045469;28;20048;-78
2023/01/26 08:50:53;;;;;;;52.90;16.30;;;0.80;99.90;;;;;;5040074;28;20079;-78
2023/01/26 08:53:19;;;;;;;57.63;16.35;;;0.80;99.90;;;;;;5045536;28;20043;-78
2023/01/26 08:55:44;;;;;;;54.63;15.45;;;0.90;99.90;;;;;;5050727;28;20037;-78
2023/01/26 08:58:10;;;;;;;54.35;14.95;;;0.90;99.90;;;;;;5050279;28;20119;-79
2023/01/26 09:00:36;;;;;;;51.00;10.52;;;1.00;99.90;;;;;;5045012;28;20037;-79
2023/01/26 09:03:03;;;;;;;50.53;11.45;;;1.10;99.90;;;;;;5049756;28;20078;-81
2023/01/26 09:05:34;;;;;;;50.35;10.50;;;1.20;99.90;;;;;;5050402;28;20033;-82
2023/01/26 09:08:00;;;;;;;49.80;10.65;;;1.20;99.90;;;;;;5047776;28;20499;-80
2023/01/26 09:10:25;;;;;;;56.65;11.05;;;1.30;99.90;;;;;;5037594;28;20040;-79
2023/01/26 09:12:51;;;;;;;42.53;8.80;;;1.40;99.90;;;;;;5044267;28;20069;-80
2023/01/26 09:15:17;;;;;;;50.05;12.00;;;1.50;99.90;;;;;;5044612;28;20030;-80
2023/01/26 09:17:42;;;;;;;43.58;8.50;;;1.70;99.90;;;;;;5047652;28;20116;-79
2023/01/26 09:20:10;;;;;;;36.78;7.65;;;1.80;99.90;;;;;;5047097;28;20460;-78
2023/01/26 09:22:36;;;;;;;45.33;8.30;;;1.90;99.90;;;;;;5047390;28;20045;-79
2023/01/26 09:25:01;;;;;;;49.42;7.85;;;2.00;99.90;;;;;;5043741;28;20603;-79
2023/01/26 09:27:27;;;;;;;43.10;7.47;;;2.10;99.90;;;;;;5044401;28;20079;-79
2023/01/26 09:29:54;;;;;;;50.72;9.05;;;2.20;99.90;;;;;;5045319;28;20124;-79
2023/01/26 09:32:19;;;;;;;56.78;7.50;;;2.30;99.90;;;;;;5046833;28;20068;-79
2023/01/26 09:34:45;;;;;;;36.42;5.85;;;2.40;99.90;;;;;;5046680;28;20122;-78
2023/01/26 09:37:10;;;;;;;55.88;7.75;;;3.00;99.90;;;;;;5042313;28;20048;-78
2023/01/26 09:39:36;;;;;;;39.30;5.53;;;2.70;99.90;;;;;;5047787;28;20041;-79
2023/01/26 09:42:20;;;;;;;39.08;6.00;;;2.70;99.90;;;;;;5041659;28;20611;-79
2023/01/26 09:44:58;;;;;;;36.50;7.35;;;2.70;99.90;;;;;;5064960;28;20060;-79
2023/01/26 09:47:40;;;;;;;37.42;6.50;;;2.80;99.90;;;;;;5044784;28;20404;-79
2023/01/26 09:50:13;;;;;;;46.25;5.15;;;3.00;99.90;;;;;;5040342;28;20120;-79
2023/01/26 09:53:02;;;;;;;41.15;5.53;;;3.10;99.90;;;;;;5046085;28;20041;-79
2023/01/26 09:55:29;;;;;;;42.63;5.53;;;3.30;99.90;;;;;;5040462;28;20402;-78
2023/01/26 09:58:06;;;;;;;35.42;4.68;;;3.50;99.90;;;;;;5042375;28;20095;-79
2023/01/26 10:00:32;;;;;;;50.45;5.70;;;3.70;99.90;;;;;;5048509;28;20041;-78
2023/01/26 10:03:16;;;;;;;37.10;5.05;;;4.00;99.90;;;;;;5047776;28;20041;-78
2023/01/26 10:06:20;;;;;;;46.05;6.80;;;4.10;99.90;;;;;;5042033;28;20029;-79
2023/01/26 10:08:46;;;;;;;40.00;4.82;;;5.00;99.90;;;;;;5046639;28;20496;-79
2023/01/26 10:11:38;;;;;;;39.60;4.65;;;4.20;99.90;;;;;;5042547;28;20034;-79
2023/01/26 10:14:29;;;;;;;43.22;5.25;;;4.30;99.90;;;;;;5045269;28;20041;-79
2023/01/26 10:16:56;;;;;;;44.75;6.47;;;4.40;99.90;;;;;;5044523;28;20468;-79
2023/01/26 10:19:39;;;;;;;42.88;4.78;;;4.60;99.90;;;;;;5049196;28;20048;-79
2023/01/26 10:22:13;;;;;;;32.17;5.13;;;4.70;99.90;;;;;;5045101;28;20094;-78
2023/01/26 10:24:38;;;;;;;40.17;5.13;;;4.70;99.90;;;;;;5048740;28;20484;-79
2023/01/26 10:27:10;;;;;;;39.50;5.38;;;4.80;99.90;;;;;;5046995;28;20036;-79
2023/01/26 10:29:36;;;;;;;35.35;4.22;;;5.00;99.90;;;;;;5046988;28;20040;-79
2023/01/26 10:32:02;;;;;;;29.65;4.22;;;4.90;99.90;;;;;;5047600;28;20098;-79
2023/01/26 10:34:28;;;;;;;42.58;5.05;;;4.90;99.90;;;;;;5046573;28;20052;-78
2023/01/26 10:37:25;;;;;;;35.13;4.80;;;5.00;99.90;;;;;;5049265;28;20123;-79
2023/01/26 10:40:03;;;;;;;34.97;5.70;;;5.20;99.90;;;;;;5049475;28;20033;-78
2023/01/26 10:42:31;;;;;;;29.92;4.40;;;5.20;99.90;;;;;;5042574;28;20029;-79
2023/01/26 10:45:03;;;;;;;38.30;4.65;;;5.40;99.90;;;;;;5043962;28;20426;-79
2023/01/26 10:47:29;;;;;;;26.48;3.70;;;5.50;99.90;;;;;;5046237;28;20044;-79
2023/01/26 10:50:22;;;;;;;43.72;6.18;;;5.60;99.90;;;;;;5042283;28;20049;-79
2023/01/26 10:52:59;;;;;;;28.95;5.22;;;5.70;99.90;;;;;;5044840;28;20037;-79
2023/01/26 10:55:26;;;;;;;30.00;4.30;;;5.80;99.90;;;;;;5044357;28;20072;-79
2023/01/26 10:57:52;;;;;;;25.10;3.42;;;5.80;99.90;;;;;;5041132;28;20068;-79
2023/01/26 11:00:32;;;;;;;23.95;3.67;;;5.90;99.90;;;;;;5038975;28;20136;-79
2023/01/26 11:03:16;;;;;;;32.88;4.10;;;6.10;99.90;;;;;;5048793;28;20075;-79
2023/01/26 11:05:43;;;;;;;34.63;4.75;;;6.30;99.90;;;;;;5058692;28;20132;-80
2023/01/26 11:08:33;;;;;;;28.08;4.22;;;6.40;99.90;;;;;;5030127;28;20036;-79
2023/01/26 11:10:59;;;;;;;24.98;3.08;;;6.50;99.90;;;;;;5034586;28;20076;-80
2023/01/26 11:13:25;;;;;;;24.92;3.50;;;6.60;99.90;;;;;;5045053;28;20049;-80
2023/01/26 11:16:05;;;;;;;27.88;3.47;;;6.70;99.90;;;;;;5041409;28;20049;-80
2023/01/26 11:18:45;;;;;;;26.42;3.75;;;6.70;99.90;;;;;;5047518;28;20234;-79
2023/01/26 11:21:32;;;;;;;22.20;3.17;;;6.70;99.90;;;;;;5041898;28;20136;-82
2023/01/26 11:24:07;;;;;;;20.10;2.70;;;6.70;99.90;;;;;;5045865;28;20053;-81
2023/01/26 11:26:51;;;;;;;35.80;3.70;;;6.60;99.90;;;;;;5046801;28;20072;-81
2023/01/26 11:29:29;;;;;;;24.50;3.20;;;6.60;99.90;;;;;;5043276;28;20033;-79
2023/01/26 11:32:20;;;;;;;25.92;3.50;;;6.60;99.90;;;;;;5045424;28;20040;-79
2023/01/26 11:35:11;;;;;;;31.38;4.15;;;6.60;99.90;;;;;;5046228;28;20045;-79
2023/01/26 11:37:52;;;;;;;21.70;3.38;;;6.70;99.90;;;;;;5038681;28;20128;-79
2023/01/26 11:40:45;;;;;;;24.92;2.92;;;6.80;99.90;;;;;;5049082;28;20044;-80
2023/01/26 11:43:49;;;;;;;30.05;2.83;;;6.90;99.90;;;;;;5045478;28;20037;-79
2023/01/26 11:46:42;;;;;;;28.75;3.55;;;7.10;99.90;;;;;;5046547;28;20040;-81
2023/01/26 11:49:26;;;;;;;21.27;3.08;;;7.20;99.90;;;;;;5040963;28;20033;-80
2023/01/26 11:52:19;;;;;;;17.85;3.38;;;7.20;99.90;;;;;;5036233;28;20026;-80
2023/01/26 11:55:03;;;;;;;13.57;2.72;;;7.40;99.90;;;;;;5045906;28;20045;-81
2023/01/26 11:57:44;;;;;;;18.02;2.42;;;7.60;99.90;;;;;;5047590;28;20049;-81
2023/01/26 12:00:22;;;;;;;16.88;1.90;;;7.70;99.90;;;;;;5043513;28;20039;-81
2023/01/26 12:02:58;;;;;;;19.83;2.08;;;7.70;99.90;;;;;;5040180;28;20055;-81
2023/01/26 12:05:43;;;;;;;14.27;1.63;;;7.70;99.90;;;;;;5042024;28;20041;-82
2023/01/26 12:08:21;;;;;;;14.70;1.75;;;7.60;99.90;;;;;;5043741;28;20065;-82
2023/01/26 12:10:49;;;;;;;10.40;1.73;;;7.50;99.90;;;;;;5035031;28;20041;-82
2023/01/26 12:13:41;;;;;;;12.05;1.73;;;7.40;99.90;;;;;;5062262;28;20041;-82
2023/01/26 12:16:19;;;;;;;19.92;2.42;;;7.30;99.90;;;;;;5040029;28;20094;-82
2023/01/26 12:18:58;;;;;;;14.60;2.17;;;7.20;99.90;;;;;;5040376;28;20073;-82
2023/01/26 12:21:27;;;;;;;21.65;1.73;;;7.10;99.90;;;;;;5034465;28;20041;-82
2023/01/26 12:24:00;;;;;;;11.85;1.77;;;7.10;99.90;;;;;;5032636;28;20061;-82
2023/01/26 12:26:31;;;;;;;15.13;1.63;;;7.40;99.90;;;;;;5041474;28;20053;-82
2023/01/26 12:29:16;;;;;;;18.90;1.90;;;7.10;99.90;;;;;;5042632;28;20108;-82
2023/01/26 12:32:04;;;;;;;12.63;1.73;;;7.10;99.90;;;;;;5044710;28;20517;-82
2023/01/26 12:34:32;;;;;;;16.02;2.28;;;7.50;99.90;;;;;;5040838;28;20135;-82
2023/01/26 12:37:19;;;;;;;15.30;1.98;;;7.20;99.90;;;;;;5059651;28;20059;-81
2023/01/26 12:39:50;;;;;;;11.85;1.80;;;7.20;99.90;;;;;;5043580;28;20091;-81
2023/01/26 12:42:56;;;;;;;14.85;1.80;;;7.20;99.90;;;;;;5045391;28;20045;-82
2023/01/26 12:45:34;;;;;;;13.30;1.70;;;7.20;99.90;;;;;;5041974;28;20041;-81
2023/01/26 12:48:15;;;;;;;12.70;1.77;;;7.30;99.90;;;;;;5040752;28;20045;-81
2023/01/26 12:50:50;;;;;;;16.65;2.40;;;7.30;99.90;;;;;;5039903;28;20449;-81
2023/01/26 12:53:37;;;;;;;14.43;2.28;;;7.40;99.90;;;;;;5043250;28;20087;-81
2023/01/26 12:56:09;;;;;;;10.68;2.17;;;7.50;99.90;;;;;;5042397;28;20076;-81
2023/01/26 12:58:47;;;;;;;15.07;1.92;;;7.50;99.90;;;;;;5043010;28;20049;-81
2023/01/26 13:01:16;;;;;;;11.73;1.55;;;7.50;99.90;;;;;;5043137;28;20041;-81
2023/01/26 13:03:50;;;;;;;7.32;1.42;;;7.50;99.90;;;;;;5043974;28;20037;-81
2023/01/26 13:06:15;;;;;;;12.93;1.33;;;7.50;99.90;;;;;;5046415;28;20033;-81
2023/01/26 13:08:56;;;;;;;14.88;1.88;;;8.00;99.90;;;;;;5037830;28;20880;-81
2023/01/26 13:11:43;;;;;;;17.17;2.40;;;7.50;99.90;;;;;;5043387;28;20041;-82
2023/01/26 13:14:33;;;;;;;15.73;3.42;;;7.50;99.90;;;;;;5050394;28;20048;-81
2023/01/26 13:17:19;;;;;;;15.52;2.40;;;7.50;99.90;;;;;;5051276;28;20052;-80
2023/01/26 13:19:45;;;;;;;12.18;1.58;;;7.40;99.90;;;;;;5017840;28;20057;-81
2023/01/26 13:22:22;;;;;;;13.93;2.17;;;7.60;99.90;;;;;;5043919;28;20311;-80
2023/01/26 13:24:58;;;;;;;14.75;2.05;;;7.40;99.90;;;;;;5047510;28;20057;-80
2023/01/26 13:27:53;;;;;;;10.93;1.35;;;7.40;99.90;;;;;;5043880;28;20372;-80
2023/01/26 13:30:24;;;;;;;14.57;1.70;;;7.50;99.90;;;;;;5048775;28;20510;-80
2023/01/26 13:32:51;;;;;;;18.02;2.72;;;7.40;99.90;;;;;;5041440;28;20057;-79
2023/01/26 13:35:23;;;;;;;15.75;1.55;;;7.50;99.90;;;;;;5039310;28;20435;-80
2023/01/26 13:37:49;;;;;;;8.98;1.52;;;7.50;99.90;;;;;;5050727;28;20049;-80
2023/01/26 13:40:21;;;;;;;11.98;1.20;;;7.50;99.90;;;;;;5047434;28;20120;-82
2023/01/26 13:43:02;;;;;;;9.85;0.90;;;7.50;99.90;;;;;;5044703;28;20045;-82
2023/01/26 13:45:46;;;;;;;11.38;1.73;;;7.50;99.90;;;;;;5046253;28;20048;-83